This is the latest recevied weather packets stored in our database for station/object WM1X. If no packets are shown the sender has not sent any weather packets the latest 10 day(s).
| Time | Temp. | Humidity | Pressure | Rain* | Wind** | Luminosity | Snow |
|---|---|---|---|---|---|---|---|
| 1777550703 | 6.11° C | 100% | 1008.2 hPa | 1.27 mm | - | - | - |
| 1777548305 | 5.56° C | 100% | 1008.3 hPa | 1.02 mm | - | - | - |
| 1777544104 | 5.56° C | 100% | 1008.4 hPa | 0.76 mm | - | - | - |
| 1777542905 | 5.56° C | 100% | 1008.5 hPa | 1.02 mm | - | - | - |
| 1777537503 | 5.56° C | 100% | 1008.9 hPa | 0.76 mm | - | - | - |
| 1777536304 | 5.56° C | 100% | 1009.2 hPa | 0.25 mm | - | - | - |
| 1777533904 | 5.56° C | 100% | 1009.5 hPa | 0 mm | - | - | - |
| 1777529703 | 5.56° C | 99% | 1010.2 hPa | 0 mm | - | - | - |
| 1777522504 | 5.56° C | 98% | 1011.6 hPa | 0 mm | - | - | - |
| 1777512904 | 6.67° C | 95% | 1012.9 hPa | 0.25 mm | - | - | - |
| 1777509904 | 7.78° C | 91% | 1012.9 hPa | 0 mm | - | - | - |
| 1777508104 | 8.33° C | 87% | 1012.8 hPa | 0 mm | - | - | - |
| 1777506903 | 8.89° C | 86% | 1012.8 hPa | 0 mm | - | - | - |
| 1777499704 | 13.33° C | 68% | 1012.9 hPa | 0 mm | - | - | - |
| 1777495505 | 13.89° C | 62% | 1012.9 hPa | 0 mm | - | - | - |
| 1777494904 | 13.89° C | 60% | 1012.9 hPa | 0 mm | - | - | - |
| 1777485903 | 12.78° C | 68% | 1015.3 hPa | 0.25 mm | - | - | - |
| 1777483504 | 12.22° C | 68% | 1015.3 hPa | 0 mm | - | - | - |
| 1777479904 | 12.22° C | 67% | 1015.6 hPa | 0 mm | - | - | - |
| 1777472704 | 10° C | 72% | 1016.7 hPa | 0 mm | - | - | - |
| 1777471504 | 9.44° C | 74% | 1017.3 hPa | 0 mm | - | - | - |
| 1777467304 | 7.78° C | 82% | 1017.9 hPa | 0 mm | - | - | - |
| 1777464904 | 6.67° C | 87% | 1018.4 hPa | 0 mm | - | - | - |
| 1777463704 | 5.56° C | 89% | 1018.7 hPa | 0 mm | - | - | - |
| 1777452904 | 5.56° C | 92% | 1017.4 hPa | 0 mm | - | - | - |
* Rain latest hour (hover to see other rain measurements)
** Current wind speed in m/s (hover to see current wind gust speed)